Time,TemperatureF,DewpointF,PressureIn,WindDirection,WindDirectionDegrees,WindSpeedMPH,WindSpeedGustMPH,Humidity,HourlyPrecipIn,Conditions,Clouds,dailyrainin,SoftwareType,DateUTC
2013-07-20 00:01:00,65.0,36.0,-100.00,NE,45,5.0,11.0,34,-99.99,,,-99.99,,2013-07-20 07:01:00,
2013-07-20 00:22:00,64.0,36.0,-100.00,NE,45,5.0,9.0,35,-99.99,,,-99.99,,2013-07-20 07:22:00,
2013-07-20 00:44:00,64.0,35.0,-100.00,NE,45,4.0,9.0,34,-99.99,,,-99.99,,2013-07-20 07:44:00,
2013-07-20 00:53:00,64.0,35.0,-100.00,NE,45,4.0,9.0,34,-99.99,,,-99.99,,2013-07-20 07:53:00,
2013-07-20 01:01:00,64.0,34.0,-100.00,NE,45,4.0,8.0,32,-99.99,,,-99.99,,2013-07-20 08:01:00,
2013-07-20 01:11:00,64.0,34.0,-100.00,NE,45,4.0,8.0,32,-99.99,,,-99.99,,2013-07-20 08:11:00,
2013-07-20 01:22:00,63.0,33.0,-100.00,NE,45,4.0,7.0,32,-99.99,,,-99.99,,2013-07-20 08:22:00,
2013-07-20 01:52:00,62.0,32.0,-100.00,NE,45,3.0,6.0,32,-99.99,,,-99.99,,2013-07-20 08:52:00,
2013-07-20 02:01:00,62.0,31.0,-100.00,NE,45,3.0,6.0,31,-99.99,,,-99.99,,2013-07-20 09:01:00,
2013-07-20 02:22:00,62.0,31.0,-100.00,NE,45,2.0,4.0,31,-99.99,,,-99.99,,2013-07-20 09:22:00,
2013-07-20 02:53:00,62.0,30.0,-100.00,NE,45,2.0,4.0,30,-99.99,,,-99.99,,2013-07-20 09:53:00,
2013-07-20 10:43:00,74.0,29.0,-100.00,East,90,6.0,9.0,19,-99.99,,,-99.99,,2013-07-20 17:43:00,
2013-07-20 10:53:00,74.0,29.0,-100.00,East,90,6.0,9.0,19,-99.99,,,-99.99,,2013-07-20 17:53:00,
2013-07-20 11:01:00,74.0,31.0,-100.00,SE,135,5.0,10.0,20,-99.99,,,-99.99,,2013-07-20 18:01:00,
2013-07-20 11:11:00,74.0,31.0,-100.00,SE,135,5.0,10.0,20,-99.99,,,-99.99,,2013-07-20 18:11:00,
2013-07-20 11:22:00,75.0,31.0,-100.00,SE,135,4.0,9.0,20,-99.99,,,-99.99,,2013-07-20 18:22:00,
2013-07-20 11:33:00,76.0,33.0,-100.00,SE,135,5.0,11.0,21,-99.99,,,-99.99,,2013-07-20 18:33:00,
2013-07-20 11:43:00,76.0,31.0,-100.00,South,180,2.0,13.0,19,-99.99,,,-99.99,,2013-07-20 18:43:00,
2013-07-20 12:03:00,77.0,31.0,-100.00,SE,135,4.0,7.0,19,-99.99,,,-99.99,,2013-07-20 19:03:00,
2013-07-20 12:13:00,77.0,31.0,-100.00,East,90,3.0,9.0,19,-99.99,,,-99.99,,2013-07-20 19:13:00,
2013-07-20 12:23:00,77.0,31.0,-100.00,East,90,3.0,9.0,19,-99.99,,,-99.99,,2013-07-20 19:23:00,
2013-07-20 12:33:00,77.0,31.0,-100.00,East,90,3.0,9.0,19,-99.99,,,-99.99,,2013-07-20 19:33:00,
2013-07-20 12:53:00,78.0,33.0,-100.00,South,180,4.0,9.0,19,-99.99,,,-99.99,,2013-07-20 19:53:00,
2013-07-20 13:04:00,79.0,32.0,-100.00,SW,225,1.0,9.0,18,-99.99,,,-99.99,,2013-07-20 20:04:00,
2013-07-20 13:13:00,79.0,32.0,-100.00,SW,225,1.0,9.0,18,-99.99,,,-99.99,,2013-07-20 20:13:00,
2013-07-20 13:22:00,79.0,33.0,-100.00,West,270,6.0,11.0,19,-99.99,,,-99.99,,2013-07-20 20:22:00,
2013-07-20 13:32:00,79.0,32.0,-100.00,West,270,7.0,12.0,18,-99.99,,,-99.99,,2013-07-20 20:32:00,
2013-07-20 13:53:00,81.0,32.0,-100.00,SW,225,4.0,9.0,17,-99.99,,,-99.99,,2013-07-20 20:53:00,
2013-07-20 14:02:00,79.0,31.0,-100.00,West,270,4.0,10.0,17,-99.99,,,-99.99,,2013-07-20 21:02:00,
2013-07-20 14:12:00,79.0,31.0,-100.00,West,270,4.0,10.0,17,-99.99,,,-99.99,,2013-07-20 21:12:00,
2013-07-20 14:22:00,80.0,34.0,-100.00,NE,45,3.0,8.0,19,-99.99,,,-99.99,,2013-07-20 21:22:00,
2013-07-20 14:33:00,79.0,32.0,-100.00,South,180,4.0,9.0,18,-99.99,,,-99.99,,2013-07-20 21:33:00,
2013-07-20 14:53:00,80.0,33.0,-100.00,NE,45,7.0,10.0,18,-99.99,,,-99.99,,2013-07-20 21:53:00,
2013-07-20 15:03:00,80.0,33.0,-100.00,NE,45,6.0,12.0,18,-99.99,,,-99.99,,2013-07-20 22:03:00,
2013-07-20 15:22:00,80.0,33.0,-100.00,East,90,5.0,16.0,18,-99.99,,,-99.99,,2013-07-20 22:22:00,
2013-07-20 15:33:00,80.0,31.0,-100.00,NE,45,10.0,13.0,17,-99.99,,,-99.99,,2013-07-20 22:33:00,
2013-07-20 15:52:00,80.0,30.0,-100.00,East,90,4.0,17.0,16,-99.99,,,-99.99,,2013-07-20 22:52:00,
2013-07-20 16:03:00,79.0,29.0,-100.00,North,0,6.0,12.0,16,-99.99,,,-99.99,,2013-07-20 23:03:00,
2013-07-20 16:13:00,80.0,29.0,-100.00,NE,45,4.0,13.0,15,-99.99,,,-99.99,,2013-07-20 23:13:00,
2013-07-20 16:22:00,80.0,29.0,-100.00,NE,45,4.0,13.0,15,-99.99,,,-99.99,,2013-07-20 23:22:00,
2013-07-20 16:34:00,81.0,27.0,-100.00,NE,45,6.0,12.0,14,-99.99,,,-99.99,,2013-07-20 23:34:00,
2013-07-20 16:43:00,79.0,29.0,-100.00,East,90,11.0,17.0,16,-99.99,,,-99.99,,2013-07-20 23:43:00,
2013-07-20 16:54:00,79.0,29.0,-100.00,East,90,11.0,17.0,16,-99.99,,,-99.99,,2013-07-20 23:54:00,
2013-07-20 17:04:00,80.0,30.0,-100.00,North,0,8.0,18.0,16,-99.99,,,-99.99,,2013-07-21 00:04:00,
2013-07-20 17:22:00,80.0,30.0,-100.00,North,0,4.0,17.0,16,-99.99,,,-99.99,,2013-07-21 00:22:00,
2013-07-20 17:53:00,79.0,32.0,-100.00,NE,45,8.0,11.0,18,-99.99,,,-99.99,,2013-07-21 00:53:00,
2013-07-20 18:11:00,78.0,31.0,-100.00,East,90,8.0,13.0,18,-99.99,,,-99.99,,2013-07-21 01:11:00,
2013-07-20 18:22:00,78.0,32.0,-100.00,NE,45,6.0,13.0,19,-99.99,,,-99.99,,2013-07-21 01:22:00,
2013-07-20 18:33:00,78.0,32.0,-100.00,East,90,9.0,12.0,19,-99.99,,,-99.99,,2013-07-21 01:33:00,
2013-07-20 18:44:00,-999.0,-99.9,-100.00,NE,45,6.0,9.0,-999,-99.99,,,-99.99,,2013-07-21 01:44:00,
2013-07-20 18:53:00,78.0,34.0,-100.00,NE,45,6.0,9.0,20,-99.99,,,-99.99,,2013-07-21 01:53:00,
2013-07-20 19:03:00,79.0,34.0,-100.00,NE,45,3.0,9.0,20,-99.99,,,-99.99,,2013-07-21 02:03:00,
2013-07-20 19:13:00,77.0,35.0,-100.00,NE,45,7.0,11.0,22,-99.99,,,-99.99,,2013-07-21 02:13:00,
2013-07-20 19:23:00,77.0,35.0,-100.00,NE,45,7.0,11.0,22,-99.99,,,-99.99,,2013-07-21 02:23:00,
2013-07-20 19:33:00,76.0,35.0,-100.00,NE,45,6.0,11.0,22,-99.99,,,-99.99,,2013-07-21 02:33:00,
2013-07-20 19:43:00,75.0,36.0,-100.00,NE,45,9.0,11.0,24,-99.99,,,-99.99,,2013-07-21 02:43:00,
2013-07-20 19:53:00,75.0,36.0,-100.00,NE,45,9.0,11.0,24,-99.99,,,-99.99,,2013-07-21 02:53:00,
2013-07-20 20:02:00,75.0,37.0,-100.00,East,90,6.0,11.0,25,-99.99,,,-99.99,,2013-07-21 03:02:00,
2013-07-20 20:13:00,75.0,37.0,-100.00,East,90,6.0,11.0,25,-99.99,,,-99.99,,2013-07-21 03:13:00,
2013-07-20 20:32:00,73.0,36.0,-100.00,NE,45,7.0,11.0,26,-99.99,,,-99.99,,2013-07-21 03:32:00,
2013-07-20 20:53:00,71.0,35.0,-100.00,NE,45,4.0,7.0,27,-99.99,,,-99.99,,2013-07-21 03:53:00,
2013-07-20 21:01:00,70.0,36.0,-100.00,NE,45,2.0,6.0,28,-99.99,,,-99.99,,2013-07-21 04:01:00,
2013-07-20 21:11:00,68.0,39.0,-100.00,NE,45,2.0,4.0,34,-99.99,,,-99.99,,2013-07-21 04:11:00,
2013-07-20 21:22:00,68.0,39.0,-100.00,NE,45,2.0,4.0,34,-99.99,,,-99.99,,2013-07-21 04:22:00,
2013-07-20 21:32:00,68.0,38.0,-100.00,NE,45,2.0,3.0,33,-99.99,,,-99.99,,2013-07-21 04:32:00,
2013-07-20 21:43:00,67.0,36.0,-100.00,NE,45,3.0,4.0,32,-99.99,,,-99.99,,2013-07-21 04:43:00,
2013-07-20 21:53:00,67.0,36.0,-100.00,NE,45,3.0,4.0,32,-99.99,,,-99.99,,2013-07-21 04:53:00,
2013-07-20 22:01:00,68.0,35.0,-100.00,NE,45,3.0,4.0,30,-99.99,,,-99.99,,2013-07-21 05:01:00,
2013-07-20 22:11:00,68.0,35.0,-100.00,NE,45,3.0,4.0,30,-99.99,,,-99.99,,2013-07-21 05:11:00,
2013-07-20 22:21:00,67.0,34.0,-100.00,NE,45,3.0,4.0,30,-99.99,,,-99.99,,2013-07-21 05:21:00,
2013-07-20 22:32:00,66.0,35.0,-100.00,NE,45,3.0,4.0,32,-99.99,,,-99.99,,2013-07-21 05:32:00,
2013-07-20 22:42:00,67.0,36.0,-100.00,North,0,0.0,2.0,32,-99.99,,,-99.99,,2013-07-21 05:42:00,
2013-07-20 22:52:00,67.0,36.0,-100.00,North,0,0.0,2.0,32,-99.99,,,-99.99,,2013-07-21 05:52:00,
2013-07-20 23:22:00,66.0,35.0,-100.00,NE,45,1.0,2.0,31,-99.99,,,-99.99,,2013-07-21 06:22:00,
2013-07-20 23:42:00,64.0,36.0,-100.00,West,270,2.0,2.0,35,-99.99,,,-99.99,,2013-07-21 06:42:00,
2013-07-20 23:52:00,64.0,36.0,-100.00,West,270,2.0,2.0,35,-99.99,,,-99.99,,2013-07-21 06:52:00,